Time;durP1;ratioP1;P1;durP2;ratioP2;P2;SDS_P1;SDS_P2;PMS_P1;PMS_P2;Temp;Humidity;BMP_temperature;BMP_pressure;BME280_temperature;BME280_humidity;BME280_pressure;Samples;Min_cycle;Max_cycle;Signal;HPM_P1;HPM_P2
2021/08/15 00:02:18;;;;;;;49.58;27.42;;;;;;;17.84;73.79;101494.16;5112836;28;20066;-68
2021/08/15 00:04:46;;;;;;;45.88;27.38;;;;;;;17.81;73.90;101491.00;5092238;28;20051;-68
2021/08/15 00:07:12;;;;;;;50.13;27.25;;;;;;;17.81;73.91;101483.78;5090786;28;20046;-68
2021/08/15 00:09:39;;;;;;;50.00;27.73;;;;;;;17.83;73.59;101497.84;5091975;28;20040;-68
2021/08/15 00:12:07;;;;;;;43.97;27.58;;;;;;;17.85;73.31;101495.00;5091122;28;20392;-68
2021/08/15 00:14:35;;;;;;;53.67;26.88;;;;;;;17.82;73.45;101487.28;5092001;28;20554;-68
2021/08/15 00:17:03;;;;;;;48.40;26.90;;;;;;;17.79;73.69;101484.97;5091064;28;20055;-68
2021/08/15 00:19:29;;;;;;;46.53;26.98;;;;;;;17.81;73.96;101482.94;5091889;28;20507;-68
2021/08/15 00:21:56;;;;;;;49.30;27.55;;;;;;;17.81;74.50;101481.09;5091679;28;20051;-68
2021/08/15 00:24:24;;;;;;;64.32;27.83;;;;;;;17.79;75.13;101476.91;5090835;28;20408;-68
2021/08/15 00:26:51;;;;;;;47.67;26.50;;;;;;;17.77;75.26;101479.81;5089979;28;20048;-68
2021/08/15 00:29:18;;;;;;;47.20;27.50;;;;;;;17.74;75.64;101480.16;5091910;28;20068;-69
2021/08/15 00:31:44;;;;;;;49.92;26.52;;;;;;;17.73;75.40;101473.13;5090901;28;20381;-68
2021/08/15 00:34:11;;;;;;;42.28;25.85;;;;;;;17.70;75.78;101473.50;5077177;28;20154;-68
2021/08/15 00:36:38;;;;;;;45.35;25.40;;;;;;;17.68;75.70;101475.50;5073044;28;20412;-68
2021/08/15 00:39:05;;;;;;;45.38;26.35;;;;;;;17.64;76.10;101469.69;5095403;28;20123;-68
2021/08/15 00:41:31;;;;;;;49.42;25.98;;;;;;;17.67;76.05;101470.34;5095581;28;20039;-68
2021/08/15 00:44:01;;;;;;;53.22;25.30;;;;;;;17.63;76.32;101470.72;5095436;28;20054;-68
2021/08/15 00:46:29;;;;;;;51.80;24.50;;;;;;;17.63;75.82;101475.25;5095534;28;20043;-68
2021/08/15 00:48:56;;;;;;;51.97;24.88;;;;;;;17.56;75.57;101477.81;5094734;28;20051;-68
2021/08/15 00:51:23;;;;;;;47.95;24.33;;;;;;;17.55;76.00;101470.78;5094193;28;20548;-68
2021/08/15 00:53:50;;;;;;;43.53;24.15;;;;;;;17.53;76.33;101467.44;5094678;28;20059;-68
2021/08/15 00:56:19;;;;;;;43.33;23.70;;;;;;;17.53;76.45;101467.44;5093835;28;20051;-68
2021/08/15 00:58:47;;;;;;;42.78;23.73;;;;;;;17.52;76.12;101468.47;5077549;28;20044;-68
2021/08/15 01:01:14;;;;;;;47.72;24.33;;;;;;;17.54;75.52;101462.94;5094204;28;20036;-68
2021/08/15 01:03:40;;;;;;;40.63;23.08;;;;;;;17.54;75.72;101460.25;5085115;28;20044;-68
2021/08/15 01:06:08;;;;;;;48.65;22.65;;;;;;;17.55;76.03;101452.00;5073343;28;20075;-68
2021/08/15 01:08:36;;;;;;;42.58;22.73;;;;;;;17.51;76.00;101447.19;5074810;28;20048;-68
2021/08/15 01:11:05;;;;;;;44.92;22.73;;;;;;;17.49;75.96;101452.72;5073541;28;20519;-68
2021/08/15 01:13:33;;;;;;;44.40;23.20;;;;;;;17.49;76.19;101446.53;5074830;28;20493;-68
2021/08/15 01:16:02;;;;;;;46.67;22.77;;;;;;;17.48;76.33;101443.00;5078285;28;20114;-68
2021/08/15 01:18:31;;;;;;;50.17;24.38;;;;;;;17.44;76.59;101442.56;5094656;28;20126;-68
2021/08/15 01:21:08;;;;;;;47.75;23.15;;;;;;;17.40;76.46;101443.94;5094754;28;20444;-68
2021/08/15 01:23:38;;;;;;;48.10;23.92;;;;;;;17.43;76.40;101430.16;5094737;28;20035;-68
2021/08/15 01:26:11;;;;;;;48.03;22.80;;;;;;;17.37;76.53;101435.41;5094165;28;20066;-69
2021/08/15 01:28:39;;;;;;;47.95;22.67;;;;;;;17.39;76.58;101425.34;5094446;28;20068;-68
2021/08/15 01:31:06;;;;;;;51.67;24.05;;;;;;;17.35;76.95;101426.72;5094599;28;20369;-68
2021/08/15 01:33:35;;;;;;;44.40;23.60;;;;;;;17.30;77.43;101423.75;5089239;28;20072;-68
2021/08/15 01:36:04;;;;;;;45.47;23.02;;;;;;;17.35;77.54;101421.34;5094315;28;20047;-68
2021/08/15 01:38:34;;;;;;;41.80;23.17;;;;;;;17.26;77.72;101412.56;5094442;28;20529;-67
2021/08/15 01:41:01;;;;;;;45.90;23.17;;;;;;;17.29;77.30;101422.91;5092835;28;20051;-67
2021/08/15 01:43:29;;;;;;;42.78;22.80;;;;;;;17.27;77.29;101424.94;5092664;28;20058;-67
2021/08/15 01:45:56;;;;;;;40.17;22.83;;;;;;;17.17;77.59;101421.69;5094387;28;20046;-67
2021/08/15 01:48:22;;;;;;;41.90;20.65;;;;;;;17.21;77.18;101412.28;5059889;28;20089;-68
2021/08/15 01:50:49;;;;;;;44.33;22.70;;;;;;;17.21;77.18;101414.97;5100580;28;20407;-68
2021/08/15 01:53:18;;;;;;;43.72;22.25;;;;;;;17.18;77.57;101416.16;5113425;28;20058;-68
2021/08/15 01:55:45;;;;;;;40.35;22.25;;;;;;;17.17;77.54;101413.63;5113920;28;20122;-68
2021/08/15 01:58:12;;;;;;;44.58;22.17;;;;;;;17.16;77.52;101406.63;5113073;28;20046;-68
2021/08/15 02:00:41;;;;;;;46.50;21.95;;;;;;;17.13;77.53;101409.66;5114472;28;20496;-68
2021/08/15 02:03:09;;;;;;;42.22;21.08;;;;;;;17.14;77.89;101408.66;5110828;28;20068;-68
2021/08/15 02:05:37;;;;;;;43.03;21.20;;;;;;;17.14;78.12;101405.97;5093319;28;20489;-67
2021/08/15 02:08:04;;;;;;;42.63;21.27;;;;;;;17.08;78.21;101411.03;5093504;28;20519;-67
2021/08/15 02:10:32;;;;;;;39.25;21.00;;;;;;;17.05;77.91;101403.34;5092831;28;20071;-67
2021/08/15 02:13:01;;;;;;;40.67;21.73;;;;;;;16.97;77.88;101403.44;5092753;28;20036;-67
2021/08/15 02:15:29;;;;;;;46.30;21.50;;;;;;;16.98;78.05;101401.59;5093895;28;20051;-67
2021/08/15 02:17:58;;;;;;;46.50;21.60;;;;;;;16.92;78.08;101411.19;5093864;28;20521;-68
2021/08/15 02:20:25;;;;;;;44.40;22.02;;;;;;;16.92;77.92;101405.81;5093209;28;20481;-67
2021/08/15 02:22:52;;;;;;;42.38;20.58;;;;;;;16.92;78.01;101408.50;5093525;28;20044;-67
2021/08/15 02:25:20;;;;;;;38.17;20.75;;;;;;;16.96;78.45;101404.44;5090986;28;20488;-67
2021/08/15 02:27:48;;;;;;;48.78;20.65;;;;;;;16.89;78.41;101411.53;5075211;28;20135;-67
2021/08/15 02:30:17;;;;;;;41.78;20.75;;;;;;;16.84;78.42;101408.56;5093392;28;20047;-68
2021/08/15 02:32:44;;;;;;;40.95;21.48;;;;;;;16.79;78.73;101402.84;5092022;28;20044;-67
2021/08/15 02:35:14;;;;;;;38.75;20.60;;;;;;;16.82;78.86;101405.19;5091506;28;20040;-68
2021/08/15 02:37:43;;;;;;;40.67;19.75;;;;;;;16.81;78.70;101392.81;5093232;28;20393;-68
2021/08/15 02:40:12;;;;;;;40.25;19.65;;;;;;;16.83;78.78;101402.38;5093314;28;20040;-68
2021/08/15 02:42:41;;;;;;;40.25;19.17;;;;;;;16.85;78.57;101394.16;5093213;28;20044;-67
2021/08/15 02:45:10;;;;;;;46.47;19.77;;;;;;;16.83;78.61;101382.78;5074981;28;20394;-67
2021/08/15 02:47:37;;;;;;;40.72;18.70;;;;;;;16.77;78.71;101391.50;5090386;28;20493;-67
2021/08/15 02:50:05;;;;;;;34.10;18.77;;;;;;;16.78;78.71;101383.28;5092437;28;20484;-67
2021/08/15 02:52:32;;;;;;;40.55;18.23;;;;;;;16.70;79.11;101378.81;5091894;28;20047;-69
2021/08/15 02:55:01;;;;;;;36.35;18.85;;;;;;;16.69;78.68;101377.13;5093314;28;20071;-67
2021/08/15 02:57:28;;;;;;;34.83;18.90;;;;;;;16.73;78.54;101376.78;5091508;28;20048;-67
2021/08/15 02:59:55;;;;;;;33.00;18.10;;;;;;;16.76;78.74;101371.09;5093021;28;20044;-68
2021/08/15 03:02:22;;;;;;;34.95;18.02;;;;;;;16.75;78.49;101366.72;5091515;28;20134;-68
2021/08/15 03:04:49;;;;;;;44.40;18.17;;;;;;;16.70;78.35;101367.28;5091060;28;20126;-68
2021/08/15 03:07:18;;;;;;;40.50;18.25;;;;;;;16.60;78.78;101367.50;5091857;28;20122;-68
2021/08/15 03:09:46;;;;;;;36.38;18.58;;;;;;;16.65;78.87;101354.41;5075099;28;20393;-68
2021/08/15 03:12:13;;;;;;;38.60;18.88;;;;;;;16.63;79.06;101363.66;5091677;28;20050;-68
2021/08/15 03:14:40;;;;;;;36.35;17.92;;;;;;;16.69;78.64;101352.22;5092589;28;20047;-68
2021/08/15 03:17:09;;;;;;;39.90;17.88;;;;;;;16.69;78.55;101349.53;5091430;28;20048;-68
2021/08/15 03:19:37;;;;;;;32.78;18.30;;;;;;;16.71;78.60;101350.19;5072860;28;20063;-68
2021/08/15 03:22:05;;;;;;;41.13;18.45;;;;;;;16.74;78.41;101351.69;5092865;28;20040;-68
2021/08/15 03:24:32;;;;;;;38.47;17.80;;;;;;;16.69;78.40;101350.34;5092618;28;20044;-68
2021/08/15 03:26:59;;;;;;;40.13;17.63;;;;;;;16.64;78.44;101347.38;5092002;28;20603;-68
2021/08/15 03:29:26;;;;;;;39.08;18.02;;;;;;;16.59;78.42;101346.25;5092123;28;20126;-68
2021/08/15 03:31:54;;;;;;;38.00;17.65;;;;;;;16.63;78.48;101343.03;5091282;28;20044;-68
2021/08/15 03:34:21;;;;;;;35.40;17.92;;;;;;;16.66;78.26;101342.69;5078570;28;20047;-68
2021/08/15 03:36:50;;;;;;;35.00;17.92;;;;;;;16.63;78.27;101344.91;5079838;28;20044;-68
2021/08/15 03:39:16;;;;;;;39.80;17.80;;;;;;;16.70;78.14;101338.63;5092544;28;20040;-68
2021/08/15 03:41:44;;;;;;;37.55;17.40;;;;;;;16.62;78.22;101337.88;5092501;28;20040;-68
2021/08/15 03:44:11;;;;;;;36.05;16.92;;;;;;;16.60;78.22;101343.41;5089259;28;20051;-68
2021/08/15 03:46:40;;;;;;;37.53;17.10;;;;;;;16.58;78.33;101345.44;5092410;28;20067;-68
2021/08/15 03:49:07;;;;;;;36.92;16.73;;;;;;;16.60;78.31;101337.22;5092237;28;20050;-68
2021/08/15 03:51:33;;;;;;;34.72;17.20;;;;;;;16.57;78.20;101326.84;5098418;28;20043;-68
2021/08/15 03:54:00;;;;;;;35.55;17.30;;;;;;;16.53;78.44;101318.34;5112858;28;20049;-68
2021/08/15 03:56:27;;;;;;;36.50;16.58;;;;;;;16.54;78.35;101321.88;5094458;28;20119;-68
2021/08/15 03:58:54;;;;;;;33.40;16.67;;;;;;;16.48;78.49;101320.72;5111353;28;20035;-68
2021/08/15 04:01:20;;;;;;;33.88;17.00;;;;;;;16.47;78.69;101317.22;5112481;28;20046;-68
2021/08/15 04:03:47;;;;;;;34.92;16.00;;;;;;;16.55;78.47;101313.63;5102505;28;20051;-68
2021/08/15 04:06:21;;;;;;;37.00;16.88;;;;;;;16.61;77.93;101309.44;5074079;28;20040;-68
2021/08/15 04:08:50;;;;;;;32.22;15.73;;;;;;;16.49;78.32;101311.69;5092380;28;20131;-68
2021/08/15 04:11:17;;;;;;;34.75;15.57;;;;;;;16.38;78.57;101318.28;5094590;28;20044;-68
2021/08/15 04:13:44;;;;;;;37.25;15.75;;;;;;;16.44;78.37;101324.78;5094831;28;20515;-69
2021/08/15 04:16:11;;;;;;;32.55;15.23;;;;;;;16.41;78.32;101323.28;5094160;28;20047;-67
2021/08/15 04:18:38;;;;;;;35.38;16.00;;;;;;;16.44;78.56;101317.56;5095962;28;20054;-68
2021/08/15 04:21:05;;;;;;;39.63;16.70;;;;;;;16.40;78.32;101318.13;5095970;28;20040;-68
2021/08/15 04:23:32;;;;;;;37.88;16.30;;;;;;;16.43;78.21;101323.94;5095596;28;20036;-67
2021/08/15 04:25:59;;;;;;;33.63;15.00;;;;;;;16.39;78.46;101319.97;5093806;28;20040;-67
2021/08/15 04:28:26;;;;;;;45.20;15.18;;;;;;;16.43;78.19;101317.78;5089712;28;20036;-67
2021/08/15 04:30:55;;;;;;;33.58;15.82;;;;;;;16.39;78.49;101319.97;5077590;28;20047;-67
2021/08/15 04:33:24;;;;;;;40.90;16.05;;;;;;;16.43;78.09;101318.59;5090373;28;20131;-67
2021/08/15 04:35:52;;;;;;;38.45;15.32;;;;;;;16.41;78.12;101330.47;5075222;28;20051;-67
2021/08/15 04:38:21;;;;;;;31.98;14.68;;;;;;;16.38;78.38;101329.00;5094987;28;20040;-67
2021/08/15 04:40:50;;;;;;;40.28;14.95;;;;;;;16.29;78.17;101317.50;5093734;28;20036;-67
2021/08/15 04:43:18;;;;;;;33.92;15.25;;;;;;;16.39;78.49;101325.31;5077837;28;20408;-68
2021/08/15 04:45:46;;;;;;;36.47;15.02;;;;;;;16.39;78.35;101324.47;5095523;28;20050;-67
2021/08/15 04:48:14;;;;;;;33.67;15.02;;;;;;;16.39;78.39;101316.44;5094124;28;20127;-67
2021/08/15 04:50:41;;;;;;;38.90;14.73;;;;;;;16.29;78.46;101303.28;5050871;28;20060;-67
2021/08/15 04:53:08;;;;;;;37.05;14.77;;;;;;;16.34;78.08;101322.34;5077553;28;20044;-67
2021/08/15 04:55:37;;;;;;;37.20;14.80;;;;;;;16.38;77.99;101320.16;5095343;28;20507;-68
2021/08/15 04:58:04;;;;;;;38.15;15.23;;;;;;;16.41;77.90;101311.72;5093834;28;20052;-68
2021/08/15 05:00:31;;;;;;;29.95;14.93;;;;;;;16.41;77.91;101312.59;5077480;28;20062;-68
2021/08/15 05:02:58;;;;;;;33.30;15.43;;;;;;;16.33;78.38;101319.84;5093233;28;20040;-68
2021/08/15 05:05:25;;;;;;;38.47;15.55;;;;;;;16.43;78.00;101307.88;5074039;28;20045;-68
2021/08/15 05:07:52;;;;;;;30.38;14.98;;;;;;;16.38;77.88;101307.59;5073286;28;20458;-68
2021/08/15 05:10:19;;;;;;;39.72;16.13;;;;;;;16.45;77.43;101321.09;5074735;28;20040;-67
2021/08/15 05:12:46;;;;;;;38.83;14.90;;;;;;;16.49;77.83;101315.19;5090191;28;20037;-67
2021/08/15 05:15:13;;;;;;;37.55;15.05;;;;;;;16.55;77.59;101316.31;5074617;28;20044;-67
2021/08/15 05:17:40;;;;;;;31.48;14.57;;;;;;;16.56;77.45;101315.31;5087680;28;20044;-67
2021/08/15 05:20:07;;;;;;;37.17;15.40;;;;;;;16.51;77.21;101315.00;5092924;28;20503;-67
2021/08/15 05:22:34;;;;;;;35.08;14.75;;;;;;;16.63;77.27;101320.78;5077109;28;20040;-67
2021/08/15 05:25:01;;;;;;;32.08;15.00;;;;;;;16.57;77.14;101329.53;5093593;28;20058;-67
2021/08/15 05:27:27;;;;;;;35.50;14.75;;;;;;;16.60;77.04;101321.16;5083156;28;20143;-67
2021/08/15 05:29:54;;;;;;;39.90;14.38;;;;;;;16.73;76.53;101321.38;5094396;28;20044;-67
2021/08/15 05:32:21;;;;;;;34.40;14.85;;;;;;;16.78;76.36;101318.16;5094241;28;20445;-67
2021/08/15 05:34:48;;;;;;;31.65;14.57;;;;;;;16.83;76.32;101321.16;5074008;28;20036;-67
2021/08/15 05:37:15;;;;;;;34.15;14.00;;;;;;;16.79;76.38;101322.47;5084350;28;20101;-67
2021/08/15 05:39:42;;;;;;;31.80;14.65;;;;;;;16.83;76.61;101318.47;5093255;28;20040;-68
2021/08/15 05:42:08;;;;;;;34.78;14.70;;;;;;;16.84;76.54;101312.09;5093325;28;20115;-67
2021/08/15 05:44:35;;;;;;;31.90;13.77;;;;;;;16.85;76.54;101300.38;5093350;28;20541;-67
2021/08/15 05:47:04;;;;;;;35.88;14.80;;;;;;;16.89;76.58;101309.72;5093954;28;20496;-67
2021/08/15 05:49:31;;;;;;;31.17;13.85;;;;;;;16.88;76.41;101305.34;5076504;28;20040;-67
2021/08/15 05:51:58;;;;;;;33.03;14.07;;;;;;;16.94;76.70;101304.63;5076499;28;20043;-67
2021/08/15 05:54:25;;;;;;;30.67;14.80;;;;;;;16.91;76.68;101313.03;5093846;28;20040;-67
2021/08/15 05:56:52;;;;;;;37.53;14.20;;;;;;;16.95;76.56;101308.16;5093222;28;20051;-67
2021/08/15 05:59:19;;;;;;;35.92;13.98;;;;;;;16.92;76.64;101308.50;5093707;28;20048;-69
2021/08/15 06:01:45;;;;;;;28.00;14.45;;;;;;;16.95;76.63;101302.78;5093776;28;20060;-67
2021/08/15 06:04:12;;;;;;;35.55;14.40;;;;;;;17.06;76.22;101307.69;5092757;28;20484;-67
2021/08/15 06:06:39;;;;;;;34.85;14.98;;;;;;;17.05;76.16;101308.72;5090687;28;20572;-67
2021/08/15 06:09:06;;;;;;;37.58;13.93;;;;;;;17.08;76.27;101301.16;5092506;28;20051;-67
2021/08/15 06:11:33;;;;;;;31.25;13.55;;;;;;;17.14;76.20;101298.75;5093916;28;20061;-69
2021/08/15 06:14:00;;;;;;;34.08;14.32;;;;;;;17.22;75.87;101295.97;5093438;28;20062;-69
2021/08/15 06:16:27;;;;;;;33.28;13.70;;;;;;;17.27;75.70;101298.94;5093681;28;20071;-69
2021/08/15 06:18:54;;;;;;;36.20;14.43;;;;;;;17.31;75.47;101296.72;5093575;28;20129;-69
2021/08/15 06:21:20;;;;;;;39.47;13.73;;;;;;;17.42;75.35;101289.03;5093911;28;20051;-68
2021/08/15 06:23:49;;;;;;;30.70;13.45;;;;;;;17.52;74.71;101293.28;5093514;28;20050;-68
2021/08/15 06:26:16;;;;;;;32.65;13.13;;;;;;;17.57;74.75;101290.88;5087208;28;20054;-68
2021/08/15 06:28:43;;;;;;;30.40;13.63;;;;;;;17.54;74.66;101288.59;5125329;27;20400;-68
2021/08/15 06:31:18;;;;;;;37.05;14.10;;;;;;;17.48;74.84;101278.56;5093097;28;20085;-69
2021/08/15 06:33:45;;;;;;;31.00;13.20;;;;;;;17.53;74.80;101274.31;5084622;28;20040;-68
2021/08/15 06:36:12;;;;;;;35.45;14.20;;;;;;;17.60;74.79;101274.41;5073542;28;20043;-69
2021/08/15 06:38:39;;;;;;;28.75;12.85;;;;;;;17.59;74.64;101270.91;5092955;28;20044;-68
2021/08/15 06:41:07;;;;;;;30.70;13.35;;;;;;;17.60;74.68;101269.88;5074951;28;20094;-68
2021/08/15 06:43:34;;;;;;;29.25;12.07;;;;;;;17.74;74.67;101272.72;5092064;28;20102;-68
2021/08/15 06:46:01;;;;;;;28.42;12.43;;;;;;;17.72;74.47;101270.22;5091830;28;20044;-68
2021/08/15 06:48:28;;;;;;;26.80;12.73;;;;;;;17.86;74.96;101276.59;5093456;28;20089;-68
2021/08/15 06:50:58;;;;;;;27.92;13.60;;;;;;;17.93;74.14;101280.19;5092941;28;20124;-68
2021/08/15 06:53:26;;;;;;;26.80;12.50;;;;;;;18.01;73.99;101280.09;5093241;28;20042;-68
2021/08/15 06:55:53;;;;;;;31.80;12.32;;;;;;;18.08;73.95;101277.47;5091275;28;20055;-68
2021/08/15 06:58:20;;;;;;;34.55;11.95;;;;;;;18.22;73.19;101276.56;5091682;28;20056;-68
2021/08/15 07:00:46;;;;;;;31.65;11.88;;;;;;;18.33;72.85;101266.34;5092445;28;20081;-68
2021/08/15 07:03:13;;;;;;;23.88;11.73;;;;;;;18.37;72.02;101267.63;5093887;28;20125;-68
2021/08/15 07:05:40;;;;;;;27.33;11.70;;;;;;;18.40;72.35;101264.56;5092605;28;20044;-68
2021/08/15 07:08:07;;;;;;;26.52;10.93;;;;;;;18.47;72.69;101260.06;5091015;28;20044;-68
2021/08/15 07:10:34;;;;;;;27.33;11.65;;;;;;;18.51;72.29;101265.88;5092662;28;20040;-68
2021/08/15 07:13:07;;;;;;;27.45;11.27;;;;;;;18.46;72.32;101258.41;5092875;28;20043;-68
2021/08/15 07:15:34;;;;;;;28.27;11.50;;;;;;;18.55;71.82;101257.22;5091494;28;20076;-68
2021/08/15 07:18:02;;;;;;;27.60;11.43;;;;;;;18.56;71.91;101253.53;5091547;28;20036;-68
2021/08/15 07:20:29;;;;;;;26.67;12.07;;;;;;;18.69;71.40;101260.88;5091307;28;20070;-68
2021/08/15 07:22:57;;;;;;;28.50;12.35;;;;;;;18.77;71.56;101259.88;5093115;28;20491;-68
2021/08/15 07:25:28;;;;;;;25.55;11.52;;;;;;;18.88;70.98;101264.78;5092259;28;20090;-68
2021/08/15 07:27:57;;;;;;;23.90;11.90;;;;;;;18.94;71.21;101258.59;5091981;28;20067;-69
2021/08/15 07:30:25;;;;;;;25.55;11.48;;;;;;;19.01;70.98;101255.97;5092565;28;20405;-69
2021/08/15 07:32:54;;;;;;;25.65;11.65;;;;;;;19.04;70.98;101249.34;5091133;28;20032;-68
2021/08/15 07:35:21;;;;;;;23.95;11.32;;;;;;;19.05;70.48;101256.41;5088896;28;20431;-69
2021/08/15 07:37:49;;;;;;;27.95;11.60;;;;;;;19.12;70.43;101257.28;5092600;28;20063;-68
2021/08/15 07:40:16;;;;;;;27.48;12.43;;;;;;;19.13;70.82;101248.97;5090948;28;20546;-69
2021/08/15 07:42:44;;;;;;;27.45;11.65;;;;;;;19.29;70.25;101238.94;5092622;28;20396;-69
2021/08/15 07:45:11;;;;;;;28.33;12.13;;;;;;;19.33;69.46;101243.69;5095282;28;20040;-68
2021/08/15 07:47:39;;;;;;;25.38;12.10;;;;;;;19.28;69.85;101245.34;5078904;28;20036;-68
2021/08/15 07:50:06;;;;;;;30.98;12.18;;;;;;;19.37;69.60;101246.81;5096082;28;20520;-68
2021/08/15 07:52:33;;;;;;;31.83;11.85;;;;;;;19.36;70.18;101243.31;5095313;28;20062;-68
2021/08/15 07:55:00;;;;;;;30.98;11.93;;;;;;;19.59;69.26;101235.94;5091466;28;20047;-68
2021/08/15 07:57:27;;;;;;;31.00;11.02;;;;;;;19.58;69.66;101239.69;5041977;28;20132;-68
2021/08/15 07:59:54;;;;;;;28.58;11.75;;;;;;;19.62;69.16;101238.25;5075979;28;20520;-69
2021/08/15 08:02:21;;;;;;;23.08;11.35;;;;;;;19.66;69.46;101234.09;5075396;28;20037;-68
2021/08/15 08:04:50;;;;;;;24.17;11.20;;;;;;;19.66;69.21;101226.84;5093061;28;20385;-68
2021/08/15 08:07:19;;;;;;;26.67;11.57;;;;;;;19.88;68.45;101226.75;5093124;28;20044;-69
2021/08/15 08:09:46;;;;;;;26.23;10.55;;;;;;;19.94;68.75;101226.75;5096057;28;20132;-69
2021/08/15 08:12:14;;;;;;;31.65;11.13;;;;;;;20.08;67.84;101224.94;5096162;28;20489;-69
2021/08/15 08:14:41;;;;;;;29.00;11.32;;;;;;;20.26;68.23;101227.00;5094992;28;20500;-68
2021/08/15 08:17:09;;;;;;;27.23;11.07;;;;;;;20.41;67.29;101223.28;5095571;28;20048;-68
2021/08/15 08:19:35;;;;;;;34.38;11.63;;;;;;;20.60;66.61;101208.97;5095796;28;20500;-68
2021/08/15 08:22:02;;;;;;;27.05;12.93;;;;;;;20.75;65.62;101211.47;5095622;28;20501;-69
2021/08/15 08:24:29;;;;;;;23.63;10.35;;;;;;;20.86;65.45;101201.91;5096044;28;20365;-68
2021/08/15 08:26:56;;;;;;;28.63;10.35;;;;;;;21.04;66.35;101207.44;5093967;28;20075;-69
2021/08/15 08:29:23;;;;;;;25.83;9.57;;;;;;;21.20;65.71;101208.03;5094326;28;20040;-69
2021/08/15 08:31:50;;;;;;;22.02;9.75;;;;;;;21.22;64.87;101214.84;5095366;28;20043;-68
2021/08/15 08:34:17;;;;;;;24.40;9.77;;;;;;;21.34;65.50;101201.53;5093945;28;20113;-68
2021/08/15 08:36:44;;;;;;;25.15;9.18;;;;;;;21.49;65.16;101205.88;5095183;28;20389;-68
2021/08/15 08:39:11;;;;;;;28.95;9.30;;;;;;;21.61;64.67;101196.03;5095415;28;20048;-68
2021/08/15 08:41:38;;;;;;;23.25;9.25;;;;;;;21.80;64.36;101208.59;5095634;28;20046;-68
2021/08/15 08:44:07;;;;;;;23.33;9.02;;;;;;;21.91;62.44;101207.06;5093882;28;20044;-68
2021/08/15 08:46:35;;;;;;;28.45;9.00;;;;;;;21.88;62.90;101212.91;5095488;28;20119;-68
2021/08/15 08:49:02;;;;;;;23.08;9.05;;;;;;;22.01;62.70;101220.94;5095342;28;20489;-68
2021/08/15 08:51:30;;;;;;;22.60;8.30;;;;;;;22.14;63.38;101206.50;5093858;28;20499;-68
2021/08/15 08:54:02;;;;;;;23.63;7.70;;;;;;;22.24;63.67;101190.59;5094211;28;20048;-68
2021/08/15 08:56:30;;;;;;;24.27;8.30;;;;;;;22.29;62.41;101203.50;5092752;28;20512;-68
2021/08/15 08:58:57;;;;;;;23.15;8.18;;;;;;;22.43;62.92;101201.50;5094140;28;20050;-68
2021/08/15 09:01:24;;;;;;;19.20;7.22;;;;;;;22.40;62.63;101181.16;5095349;28;20128;-68
2021/08/15 09:03:51;;;;;;;24.10;7.60;;;;;;;22.54;62.79;101186.41;5084486;28;20465;-68
2021/08/15 09:06:20;;;;;;;20.05;7.45;;;;;;;22.55;61.14;101183.50;5089031;28;20048;-68
2021/08/15 09:08:49;;;;;;;23.42;7.75;;;;;;;22.58;61.66;101195.75;5073446;28;20404;-68
2021/08/15 09:11:19;;;;;;;19.00;7.75;;;;;;;22.60;61.50;101194.47;5106729;28;20045;-68
2021/08/15 09:14:04;;;;;;;18.00;6.93;;;;;;;22.86;58.95;101189.03;5073216;28;20047;-68
2021/08/15 09:16:55;;;;;;;26.08;7.57;;;;;;;22.88;60.18;101186.91;5075865;28;20068;-68
2021/08/15 09:19:32;;;;;;;19.75;7.38;;;;;;;23.06;59.48;101184.22;5094583;28;20044;-68
2021/08/15 09:22:22;;;;;;;23.48;6.47;;;;;;;23.30;60.16;101187.91;5095236;28;20075;-68
2021/08/15 09:25:10;;;;;;;13.88;5.75;;;;;;;23.33;56.30;101192.03;5074515;28;20343;-68
2021/08/15 09:27:52;;;;;;;16.63;5.88;;;;;;;23.31;56.65;101178.72;5090974;28;20054;-68
2021/08/15 09:30:28;;;;;;;17.30;5.93;;;;;;;23.47;58.16;101184.56;5076703;28;20044;-68
2021/08/15 09:33:06;;;;;;;16.00;5.28;;;;;;;23.51;55.21;101175.75;5094510;28;20119;-68
2021/08/15 09:38:16;;;;;;;18.40;6.05;;;;;;;23.73;55.62;101172.53;5128707;27;20123;-68
2021/08/15 09:40:47;;;;;;;18.37;5.50;;;;;;;23.91;53.88;101175.19;5131005;27;20388;-70
2021/08/15 09:43:20;;;;;;;16.03;5.63;;;;;;;23.95;54.26;101167.41;5129576;28;20044;-68
2021/08/15 09:45:49;;;;;;;18.20;4.70;;;;;;;24.11;56.16;101172.16;5130740;27;20040;-68
2021/08/15 09:48:20;;;;;;;14.05;5.13;;;;;;;24.16;53.86;101168.75;5131122;27;20405;-68
2021/08/15 09:51:17;;;;;;;15.88;4.95;;;;;;;24.24;53.21;101162.97;5129902;27;20046;-69
2021/08/15 09:53:58;;;;;;;18.88;4.72;;;;;;;24.33;53.17;101153.44;5128639;27;20063;-68
2021/08/15 09:56:38;;;;;;;13.95;5.20;;;;;;;24.41;54.52;101154.97;5130384;27;20100;-68
2021/08/15 09:59:21;;;;;;;20.05;6.32;;;;;;;24.77;52.72;101154.97;5128897;28;20096;-68
2021/08/15 10:01:50;;;;;;;19.58;5.05;;;;;;;25.25;50.77;101154.63;5130490;27;20147;-68
2021/08/15 10:04:18;;;;;;;18.38;5.07;;;;;;;25.15;51.31;101153.56;5108330;28;20120;-68
2021/08/15 10:06:47;;;;;;;17.40;5.25;;;;;;;25.26;50.66;101148.13;5112033;28;20063;-68
2021/08/15 10:09:14;;;;;;;16.08;5.15;;;;;;;25.22;49.46;101148.81;5130144;27;20051;-68
2021/08/15 10:11:42;;;;;;;15.07;4.68;;;;;;;25.08;51.15;101143.66;5128397;28;20156;-68
2021/08/15 10:14:11;;;;;;;16.92;5.25;;;;;;;25.22;50.72;101149.66;5128806;28;20049;-68
2021/08/15 10:16:58;;;;;;;14.77;5.30;;;;;;;25.48;50.88;101129.25;5128560;28;20044;-69
2021/08/15 10:19:47;;;;;;;13.70;4.53;;;;;;;25.98;47.41;101138.56;5128257;28;20059;-68
2021/08/15 10:22:22;;;;;;;17.00;4.93;;;;;;;26.35;48.58;101126.31;5129611;27;20104;-68
2021/08/15 10:24:52;;;;;;;18.30;4.60;;;;;;;26.51;45.97;101124.66;5129959;27;20071;-68
2021/08/15 10:35:39;;;;;;;18.52;4.70;;;;;;;26.38;44.17;101118.50;5109001;27;20358;-67
2021/08/15 10:40:57;;;;;;;20.08;5.03;;;;;;;26.23;43.52;101115.53;5109971;27;20362;-70
2021/08/15 10:49:04;;;;;;;14.10;4.15;;;;;;;26.22;44.03;101116.63;5090716;28;20898;-69
2021/08/15 10:51:50;;;;;;;15.73;4.82;;;;;;;26.25;42.62;101113.41;5089991;28;20119;-73
2021/08/15 10:54:59;;;;;;;15.55;4.20;;;;;;;26.13;43.26;101113.50;5089176;28;20389;-72
2021/08/15 10:57:45;;;;;;;14.25;4.35;;;;;;;26.18;43.07;101110.06;5089756;28;20036;-71
2021/08/15 11:06:04;;;;;;;11.35;4.03;;;;;;;26.38;42.13;101102.16;5130321;27;20584;-71
2021/08/15 11:08:37;;;;;;;14.20;4.13;;;;;;;26.18;40.93;101094.56;5127816;28;20047;-71
2021/08/15 11:11:16;;;;;;;17.30;4.45;;;;;;;26.36;40.76;101107.03;5130960;27;20040;-72
2021/08/15 11:13:43;;;;;;;14.57;4.57;;;;;;;26.33;42.62;101101.28;5112972;28;20089;-72
2021/08/15 11:24:49;;;;;;;16.20;4.63;;;;;;;25.85;42.19;101098.91;5069644;28;20390;-72
2021/08/15 11:29:59;;;;;;;16.80;4.70;;;;;;;25.64;43.68;101084.16;5090075;27;20500;-73
2021/08/15 11:32:29;;;;;;;15.52;4.45;;;;;;;25.68;44.25;101085.31;5088949;28;20519;-72
2021/08/15 11:35:08;;;;;;;18.88;4.90;;;;;;;25.85;44.13;101079.91;5087776;28;20386;-72
2021/08/15 11:37:39;;;;;;;18.02;4.95;;;;;;;25.85;42.80;101077.19;5089747;28;20068;-73
2021/08/15 11:40:14;;;;;;;14.63;4.57;;;;;;;25.97;41.33;101079.00;5090081;28;20064;-74
2021/08/15 11:42:42;;;;;;;13.52;4.50;;;;;;;25.98;42.50;101070.59;5090216;28;20064;-75
2021/08/15 11:45:10;;;;;;;17.05;5.07;;;;;;;26.13;41.82;101075.44;5089362;28;20044;-72
2021/08/15 11:47:39;;;;;;;17.65;4.60;;;;;;;25.99;42.47;101069.53;5089547;28;20071;-71
2021/08/15 11:50:17;;;;;;;23.27;4.70;;;;;;;25.91;41.63;101066.41;5089560;28;20048;-72
2021/08/15 11:52:47;;;;;;;18.80;4.85;;;;;;;25.89;41.84;101063.91;5090119;28;20110;-71
2021/08/15 11:55:28;;;;;;;18.15;4.60;;;;;;;26.10;41.40;101065.06;5057781;28;20037;-72
2021/08/15 11:57:58;;;;;;;14.82;5.13;;;;;;;26.13;41.65;101053.69;5067731;28;20059;-72